Time;durP1;ratioP1;P1;durP2;ratioP2;P2;SDS_P1;SDS_P2;PMS_P1;PMS_P2;Temp;Humidity;BMP_temperature;BMP_pressure;BME280_temperature;BME280_humidity;BME280_pressure;Samples;Min_cycle;Max_cycle;Signal;HPM_P1;HPM_P2
2022/01/25 00:09:49;;;;;;;15.40;10.30;;;;;;;;;;4963684;28;20271;-81
2022/01/25 00:28:42;;;;;;;15.90;11.37;;;;;;;;;;4975498;28;20204;-80
2022/01/25 00:31:15;;;;;;;16.20;11.20;;;;;;;;;;4966752;28;20188;-80
2022/01/25 00:33:43;;;;;;;14.93;10.23;;;;;;;;;;4972523;28;20196;-80
2022/01/25 00:36:11;;;;;;;15.23;10.23;;;;;;;;;;4988534;28;20757;-80
2022/01/25 00:38:37;;;;;;;15.37;10.57;;;;;;;;;;4973056;28;20173;-80
2022/01/25 00:41:04;;;;;;;18.20;11.53;;;;;;;;;;4973557;28;20204;-80
2022/01/25 00:43:31;;;;;;;16.40;11.30;;;;;;;;;;4973097;28;20534;-80
2022/01/25 00:46:01;;;;;;;16.93;11.50;;;;;;;;;;4972419;28;20247;-81
2022/01/25 00:54:00;;;;;;;17.47;10.90;;;;;;;;;;4991066;28;20243;-80
2022/01/25 00:56:29;;;;;;;18.27;11.47;;;;;;;;;;4985121;28;20188;-81
2022/01/25 00:58:55;;;;;;;18.83;11.70;;;;;;;;;;4965174;28;20192;-80
2022/01/25 01:01:22;;;;;;;18.30;11.17;;;;;;;;;;4967548;28;20279;-81
2022/01/25 01:03:49;;;;;;;18.33;10.43;;;;;;;;;;4976217;28;20196;-81
2022/01/25 01:06:15;;;;;;;16.93;10.60;;;;;;;;;;4956752;28;20184;-81
2022/01/25 01:08:42;;;;;;;17.67;11.77;;;;;;;;;;4969920;28;20200;-80
2022/01/25 01:11:13;;;;;;;17.67;10.67;;;;;;;;;;4965716;28;20619;-81
2022/01/25 01:37:55;;;;;;;15.17;10.17;;;;;;;;;;4986818;28;20282;-80
2022/01/25 01:40:47;;;;;;;16.43;9.77;;;;;;;;;;4971724;28;20189;-80
2022/01/25 01:48:32;;;;;;;17.23;10.37;;;;;;;;;;4975001;28;20691;-81
2022/01/25 01:51:08;;;;;;;15.73;9.20;;;;;;;;;;4970002;28;20185;-80
2022/01/25 01:53:35;;;;;;;15.13;9.57;;;;;;;;;;4977501;28;20594;-81
2022/01/25 01:56:01;;;;;;;14.63;10.43;;;;;;;;;;4977756;28;20184;-80
2022/01/25 01:58:27;;;;;;;15.27;9.87;;;;;;;;;;4972127;28;20204;-81
2022/01/25 02:00:53;;;;;;;15.17;9.07;;;;;;;;;;5016611;23;20251;-78
2022/01/25 02:03:20;;;;;;;16.67;9.93;;;;;;;;;;4970378;28;20256;-79
2022/01/25 02:05:46;;;;;;;15.23;9.17;;;;;;;;;;4969931;28;20185;-78
2022/01/25 02:08:12;;;;;;;15.37;10.27;;;;;;;;;;4968195;28;20196;-78
2022/01/25 02:10:38;;;;;;;13.63;9.13;;;;;;;;;;4979396;28;20206;-78
2022/01/25 02:13:09;;;;;;;15.27;10.40;;;;;;;;;;4990962;28;20194;-79
2022/01/25 02:15:37;;;;;;;15.27;10.47;;;;;;;;;;5006201;28;20651;-79
2022/01/25 02:23:35;;;;;;;17.50;11.17;;;;;;;;;;4988381;28;20291;-79
2022/01/25 02:26:03;;;;;;;15.57;10.40;;;;;;;;;;5004980;28;20315;-79
2022/01/25 02:28:34;;;;;;;13.00;9.07;;;;;;;;;;4991973;28;20242;-79
2022/01/25 02:31:00;;;;;;;16.23;9.47;;;;;;;;;;4993539;28;20227;-78
2022/01/25 02:33:27;;;;;;;13.80;9.90;;;;;;;;;;4993699;28;20207;-78
2022/01/25 02:35:54;;;;;;;15.87;10.07;;;;;;;;;;4994861;28;20206;-78
2022/01/25 02:38:25;;;;;;;17.13;10.00;;;;;;;;;;4994928;28;20188;-78
2022/01/25 02:40:52;;;;;;;15.43;10.40;;;;;;;;;;4981458;28;20303;-78
2022/01/25 02:43:20;;;;;;;15.13;10.20;;;;;;;;;;5007982;28;20192;-78
2022/01/25 02:45:51;;;;;;;17.30;10.00;;;;;;;;;;5006077;28;20192;-78
2022/01/25 02:48:30;;;;;;;15.40;9.77;;;;;;;;;;4998312;28;20724;-78
2022/01/25 02:50:57;;;;;;;15.53;10.30;;;;;;;;;;5011255;28;20203;-79
2022/01/25 02:53:23;;;;;;;14.90;9.80;;;;;;;;;;4995055;28;20748;-79
2022/01/25 02:55:50;;;;;;;14.40;9.70;;;;;;;;;;4989604;28;20262;-79
2022/01/25 02:58:16;;;;;;;14.43;10.23;;;;;;;;;;5008753;28;20208;-79
2022/01/25 03:00:42;;;;;;;16.37;10.80;;;;;;;;;;5007700;28;20227;-79
2022/01/25 03:03:08;;;;;;;14.27;9.63;;;;;;;;;;5007320;28;20195;-79
2022/01/25 03:05:34;;;;;;;14.87;9.67;;;;;;;;;;4992005;28;20176;-79
2022/01/25 03:08:01;;;;;;;17.40;10.30;;;;;;;;;;4990179;28;20247;-79
2022/01/25 03:10:35;;;;;;;15.03;10.20;;;;;;;;;;4989136;28;20218;-79
2022/01/25 03:13:02;;;;;;;16.40;10.27;;;;;;;;;;4991943;28;20191;-78
2022/01/25 03:16:18;;;;;;;16.60;10.50;;;;;;;;;;5011839;28;20183;-79
2022/01/25 03:18:54;;;;;;;23.43;12.67;;;;;;;;;;4975162;28;20196;-78
2022/01/25 03:21:54;;;;;;;15.87;9.93;;;;;;;;;;4987776;28;20858;-79
2022/01/25 03:24:01;;;;;;;16.83;10.87;;;;;;;;;;4990397;28;20558;-79
2022/01/25 03:26:27;;;;;;;16.60;10.87;;;;;;;;;;4988699;28;20187;-78
2022/01/25 03:28:54;;;;;;;17.43;11.33;;;;;;;;;;5008887;28;20250;-78
2022/01/25 03:31:21;;;;;;;21.87;11.40;;;;;;;;;;4991667;28;20204;-78
2022/01/25 03:33:47;;;;;;;15.57;10.73;;;;;;;;;;4995380;28;20187;-79
2022/01/25 03:36:14;;;;;;;16.73;11.10;;;;;;;;;;4995327;28;20187;-79
2022/01/25 03:38:41;;;;;;;18.07;11.63;;;;;;;;;;4986687;28;20194;-79
2022/01/25 03:41:09;;;;;;;18.67;11.47;;;;;;;;;;5009867;28;20262;-79
2022/01/25 03:43:36;;;;;;;16.37;10.70;;;;;;;;;;4990743;28;20187;-79
2022/01/25 03:46:18;;;;;;;14.90;9.47;;;;;;;;;;5007563;28;20210;-79
2022/01/25 03:51:30;;;;;;;18.37;11.10;;;;;;;;;;4985404;28;20215;-78
2022/01/25 03:53:56;;;;;;;17.00;11.20;;;;;;;;;;5001235;28;20179;-79
2022/01/25 03:56:23;;;;;;;16.47;10.87;;;;;;;;;;4986111;28;20189;-78
2022/01/25 03:58:50;;;;;;;17.07;10.63;;;;;;;;;;4992256;28;20215;-80
2022/01/25 04:01:16;;;;;;;17.57;10.43;;;;;;;;;;4989690;28;20247;-79
2022/01/25 04:03:53;;;;;;;17.50;11.20;;;;;;;;;;4990266;28;20184;-79
2022/01/25 04:06:20;;;;;;;16.67;10.90;;;;;;;;;;4961818;28;20191;-79
2022/01/25 04:08:47;;;;;;;19.93;11.30;;;;;;;;;;5005775;28;20208;-79
2022/01/25 04:11:13;;;;;;;18.43;10.67;;;;;;;;;;4988716;28;20262;-79
2022/01/25 04:13:39;;;;;;;19.50;11.57;;;;;;;;;;5004561;28;20203;-79
2022/01/25 04:16:13;;;;;;;18.60;10.97;;;;;;;;;;4990523;28;20195;-78
2022/01/25 04:26:43;;;;;;;14.57;10.37;;;;;;;;;;4994562;28;20188;-79
2022/01/25 04:29:10;;;;;;;15.93;10.63;;;;;;;;;;4972615;28;20212;-79
2022/01/25 04:31:37;;;;;;;17.07;11.03;;;;;;;;;;4993553;28;20195;-79
2022/01/25 04:50:13;;;;;;;17.70;10.97;;;;;;;;;;5011771;28;20207;-79
2022/01/25 04:52:51;;;;;;;15.63;10.50;;;;;;;;;;5008981;28;20237;-78
2022/01/25 04:55:32;;;;;;;18.47;11.13;;;;;;;;;;5010872;28;20180;-79
2022/01/25 04:58:06;;;;;;;16.20;10.37;;;;;;;;;;5015141;28;20230;-78
2022/01/25 05:00:33;;;;;;;15.63;11.50;;;;;;;;;;4994437;28;20655;-78
2022/01/25 05:03:10;;;;;;;16.00;10.77;;;;;;;;;;4996002;28;20211;-78
2022/01/25 05:05:51;;;;;;;19.77;11.87;;;;;;;;;;4977681;28;20537;-78
2022/01/25 05:08:35;;;;;;;20.10;13.83;;;;;;;;;;4993774;28;20199;-79
2022/01/25 05:11:14;;;;;;;19.70;13.50;;;;;;;;;;4988192;28;20576;-79
2022/01/25 05:24:28;;;;;;;18.27;12.90;;;;;;;;;;4996612;28;20211;-78
2022/01/25 05:26:54;;;;;;;15.53;11.73;;;;;;;;;;5011566;28;20222;-78
2022/01/25 05:29:20;;;;;;;17.47;12.20;;;;;;;;;;4993864;28;20681;-79
2022/01/25 05:31:47;;;;;;;18.00;12.10;;;;;;;;;;4994650;28;20295;-79
2022/01/25 05:34:13;;;;;;;16.77;12.50;;;;;;;;;;4996238;28;20264;-79
2022/01/25 05:36:39;;;;;;;17.07;11.77;;;;;;;;;;4993052;28;20206;-79
2022/01/25 05:39:11;;;;;;;22.13;14.97;;;;;;;;;;4979587;28;20342;-79
2022/01/25 05:41:39;;;;;;;23.53;14.70;;;;;;;;;;4993598;28;20291;-79
2022/01/25 05:44:37;;;;;;;21.50;15.03;;;;;;;;;;4995016;28;20188;-79
2022/01/25 05:47:06;;;;;;;22.40;15.63;;;;;;;;;;5007864;28;20662;-79
2022/01/25 05:49:33;;;;;;;19.37;14.03;;;;;;;;;;4988402;28;20179;-80
2022/01/25 05:52:00;;;;;;;21.17;14.77;;;;;;;;;;4995843;28;20217;-79
2022/01/25 05:54:26;;;;;;;21.63;15.37;;;;;;;;;;4997578;28;20458;-79
2022/01/25 05:56:52;;;;;;;21.33;15.53;;;;;;;;;;4994638;28;20199;-79
2022/01/25 05:59:19;;;;;;;20.30;15.33;;;;;;;;;;5004863;28;20699;-79
2022/01/25 06:01:45;;;;;;;18.80;13.80;;;;;;;;;;5011479;28;20227;-79
2022/01/25 06:04:12;;;;;;;19.13;14.27;;;;;;;;;;4990002;28;20502;-79
2022/01/25 06:06:38;;;;;;;19.53;14.70;;;;;;;;;;4995381;28;20451;-79
2022/01/25 06:09:04;;;;;;;18.93;14.07;;;;;;;;;;4993867;28;20471;-79
2022/01/25 06:11:30;;;;;;;18.77;13.70;;;;;;;;;;4996398;28;20227;-78
2022/01/25 06:13:57;;;;;;;21.07;14.20;;;;;;;;;;4996116;28;20220;-79
2022/01/25 06:16:24;;;;;;;19.43;13.63;;;;;;;;;;4997324;28;20451;-77
2022/01/25 06:18:50;;;;;;;21.40;14.53;;;;;;;;;;4995825;28;20184;-77
2022/01/25 06:21:17;;;;;;;19.57;13.80;;;;;;;;;;4992422;28;20239;-77
2022/01/25 06:23:43;;;;;;;26.93;14.93;;;;;;;;;;4999553;28;20215;-74
2022/01/25 06:26:09;;;;;;;26.00;16.03;;;;;;;;;;5010746;28;20207;-78
2022/01/25 06:28:35;;;;;;;19.07;13.37;;;;;;;;;;4977021;28;20611;-79
2022/01/25 06:31:02;;;;;;;21.87;15.33;;;;;;;;;;4996470;28;20231;-75
2022/01/25 06:33:28;;;;;;;20.40;14.23;;;;;;;;;;4999993;28;20670;-77
2022/01/25 06:35:56;;;;;;;19.47;14.13;;;;;;;;;;4992451;28;20432;-77
2022/01/25 06:38:22;;;;;;;23.93;15.90;;;;;;;;;;4974343;28;20195;-78
2022/01/25 06:40:49;;;;;;;19.10;13.50;;;;;;;;;;5002584;28;20291;-79
2022/01/25 06:43:15;;;;;;;21.07;14.07;;;;;;;;;;4979707;28;20427;-77
2022/01/25 06:45:44;;;;;;;17.80;12.50;;;;;;;;;;4992243;28;20957;-76
2022/01/25 06:48:10;;;;;;;20.23;14.57;;;;;;;;;;4996251;28;20206;-78
2022/01/25 06:50:36;;;;;;;29.53;16.27;;;;;;;;;;4983624;28;20216;-75
2022/01/25 06:53:03;;;;;;;18.53;13.80;;;;;;;;;;4982138;28;20798;-76
2022/01/25 06:55:29;;;;;;;20.03;14.73;;;;;;;;;;4990775;28;20181;-76
2022/01/25 06:57:55;;;;;;;17.70;13.80;;;;;;;;;;4989335;28;20442;-75
2022/01/25 07:00:22;;;;;;;20.30;15.20;;;;;;;;;;4985513;28;20526;-77
2022/01/25 07:02:49;;;;;;;18.10;13.83;;;;;;;;;;4987924;28;20438;-78
2022/01/25 07:05:15;;;;;;;19.13;13.47;;;;;;;;;;4992700;28;20423;-77
2022/01/25 07:07:42;;;;;;;21.00;14.40;;;;;;;;;;4985523;28;20215;-77
2022/01/25 07:10:08;;;;;;;20.63;15.07;;;;;;;;;;4992784;28;20427;-77
2022/01/25 07:12:35;;;;;;;20.60;14.50;;;;;;;;;;4991599;28;20172;-77
2022/01/25 07:15:01;;;;;;;21.53;14.07;;;;;;;;;;4991014;28;20489;-77
2022/01/25 07:17:28;;;;;;;25.33;16.00;;;;;;;;;;4993666;28;20436;-77
2022/01/25 07:19:54;;;;;;;20.53;14.33;;;;;;;;;;4957065;28;20182;-77
2022/01/25 07:22:20;;;;;;;18.57;14.17;;;;;;;;;;4991383;28;20687;-78
2022/01/25 07:24:46;;;;;;;21.80;15.10;;;;;;;;;;4989124;28;20426;-77
2022/01/25 07:27:12;;;;;;;18.83;14.37;;;;;;;;;;4977289;28;20183;-78
2022/01/25 07:29:38;;;;;;;21.10;14.50;;;;;;;;;;4976587;28;20535;-76
2022/01/25 07:32:05;;;;;;;20.80;14.27;;;;;;;;;;5004120;28;20287;-78
2022/01/25 07:34:31;;;;;;;22.93;15.37;;;;;;;;;;4976982;28;20287;-77
2022/01/25 07:36:57;;;;;;;21.53;14.33;;;;;;;;;;4989281;28;20431;-78
2022/01/25 07:39:26;;;;;;;21.73;15.37;;;;;;;;;;4984435;28;20207;-78
2022/01/25 07:41:56;;;;;;;24.37;15.50;;;;;;;;;;4998849;28;20546;-78
2022/01/25 07:44:28;;;;;;;23.67;14.53;;;;;;;;;;4972998;28;20658;-78
2022/01/25 07:46:57;;;;;;;23.40;15.30;;;;;;;;;;5005640;28;20184;-78
2022/01/25 07:49:26;;;;;;;26.97;16.27;;;;;;;;;;4990910;28;20277;-78
2022/01/25 07:51:52;;;;;;;27.30;17.27;;;;;;;;;;4989272;28;20451;-79
2022/01/25 07:54:19;;;;;;;23.43;16.00;;;;;;;;;;4971915;28;20983;-79
2022/01/25 07:56:45;;;;;;;23.53;16.30;;;;;;;;;;4970227;28;20428;-78
2022/01/25 07:59:11;;;;;;;28.87;15.57;;;;;;;;;;4985301;28;20436;-78
2022/01/25 08:01:38;;;;;;;29.27;17.27;;;;;;;;;;4996492;28;20567;-79
2022/01/25 08:04:04;;;;;;;24.03;15.93;;;;;;;;;;4989829;28;20199;-78
2022/01/25 08:06:30;;;;;;;28.17;16.90;;;;;;;;;;4986926;28;21024;-78
2022/01/25 08:08:58;;;;;;;23.70;15.43;;;;;;;;;;4980075;28;20529;-78
2022/01/25 08:11:24;;;;;;;26.70;16.97;;;;;;;;;;4986614;28;20683;-78
2022/01/25 08:13:52;;;;;;;27.60;15.40;;;;;;;;;;4989992;28;20443;-78
2022/01/25 08:16:18;;;;;;;22.07;14.73;;;;;;;;;;5004963;28;20439;-77
2022/01/25 08:18:44;;;;;;;27.17;16.17;;;;;;;;;;4989595;28;21122;-78
2022/01/25 08:21:10;;;;;;;29.43;17.20;;;;;;;;;;4988296;28;20250;-78
2022/01/25 08:23:37;;;;;;;26.27;16.13;;;;;;;;;;4989317;28;20671;-78
2022/01/25 08:26:03;;;;;;;22.93;15.20;;;;;;;;;;4984942;28;20218;-78
2022/01/25 08:28:30;;;;;;;24.30;15.33;;;;;;;;;;4991293;28;20211;-78
2022/01/25 08:30:57;;;;;;;29.57;18.07;;;;;;;;;;4985900;28;20204;-78
2022/01/25 08:33:23;;;;;;;26.13;16.40;;;;;;;;;;4983374;28;20226;-78
2022/01/25 08:35:49;;;;;;;30.77;18.97;;;;;;;;;;5001857;28;20188;-78
2022/01/25 08:38:15;;;;;;;25.50;16.70;;;;;;;;;;4970415;28;20190;-78
2022/01/25 08:40:41;;;;;;;27.10;16.40;;;;;;;;;;4986387;28;20215;-77
2022/01/25 08:43:07;;;;;;;32.00;17.63;;;;;;;;;;4977352;28;20183;-77
2022/01/25 08:45:34;;;;;;;32.50;17.87;;;;;;;;;;4982356;28;20196;-75
2022/01/25 08:48:00;;;;;;;33.07;18.33;;;;;;;;;;4977208;28;20266;-75
2022/01/25 08:50:26;;;;;;;41.10;19.57;;;;;;;;;;4975206;28;20228;-76
2022/01/25 08:52:52;;;;;;;42.17;20.07;;;;;;;;;;4990030;28;20179;-76
2022/01/25 08:55:18;;;;;;;45.93;22.17;;;;;;;;;;4990722;28;20211;-75
2022/01/25 08:57:44;;;;;;;34.90;19.17;;;;;;;;;;5004878;28;20187;-75
2022/01/25 09:00:12;;;;;;;41.63;19.50;;;;;;;;;;4989823;28;20226;-76
2022/01/25 09:02:39;;;;;;;39.50;20.50;;;;;;;;;;4985985;28;20742;-76
2022/01/25 09:05:06;;;;;;;39.70;20.00;;;;;;;;;;4989836;28;20187;-76
2022/01/25 09:07:32;;;;;;;37.07;19.17;;;;;;;;;;4986030;28;20240;-76
2022/01/25 09:09:58;;;;;;;43.20;20.50;;;;;;;;;;4990910;28;20176;-76
2022/01/25 09:12:24;;;;;;;49.27;22.80;;;;;;;;;;4972187;28;20189;-76
2022/01/25 09:14:50;;;;;;;44.40;21.97;;;;;;;;;;4986281;28;20663;-76
2022/01/25 09:17:17;;;;;;;41.37;20.30;;;;;;;;;;4966080;28;20660;-76
2022/01/25 09:19:43;;;;;;;46.67;20.57;;;;;;;;;;4988531;28;20193;-76
2022/01/25 09:22:09;;;;;;;50.77;21.90;;;;;;;;;;4982728;28;20180;-76
2022/01/25 09:24:37;;;;;;;54.20;23.50;;;;;;;;;;4975166;28;20228;-76
2022/01/25 09:27:05;;;;;;;52.17;23.70;;;;;;;;;;4968601;28;20246;-76
2022/01/25 09:29:31;;;;;;;56.80;25.80;;;;;;;;;;4993107;28;20231;-76
2022/01/25 09:31:57;;;;;;;74.77;29.07;;;;;;;;;;4990094;28;20208;-76
2022/01/25 09:34:25;;;;;;;70.37;29.17;;;;;;;;;;4966920;28;20224;-76
2022/01/25 09:36:52;;;;;;;57.60;25.90;;;;;;;;;;4989353;28;20377;-76
2022/01/25 09:39:18;;;;;;;58.67;25.27;;;;;;;;;;4988564;28;20267;-76
2022/01/25 09:41:44;;;;;;;53.83;23.57;;;;;;;;;;4987426;28;20192;-76
2022/01/25 09:44:10;;;;;;;73.07;27.33;;;;;;;;;;4992024;28;20176;-76
2022/01/25 09:46:37;;;;;;;61.73;26.07;;;;;;;;;;4973360;28;20193;-76
2022/01/25 09:49:03;;;;;;;67.27;26.67;;;;;;;;;;5002370;28;20219;-76
2022/01/25 09:51:31;;;;;;;67.23;27.03;;;;;;;;;;4987441;28;20200;-76
2022/01/25 09:53:57;;;;;;;70.00;26.73;;;;;;;;;;4974694;28;20267;-76
2022/01/25 09:56:23;;;;;;;72.30;32.20;;;;;;;;;;4986706;28;20188;-76
2022/01/25 09:58:50;;;;;;;95.13;31.97;;;;;;;;;;4994177;28;20515;-76
2022/01/25 10:01:24;;;;;;;68.67;28.37;;;;;;;;;;4988051;28;20276;-76
2022/01/25 10:03:50;;;;;;;82.57;28.20;;;;;;;;;;4983580;28;20263;-76
2022/01/25 10:06:20;;;;;;;75.53;27.67;;;;;;;;;;4978059;28;20187;-76
2022/01/25 10:08:46;;;;;;;62.70;25.47;;;;;;;;;;4977095;28;20208;-76
2022/01/25 10:11:13;;;;;;;73.20;28.80;;;;;;;;;;4993347;28;20192;-76
2022/01/25 10:13:41;;;;;;;74.37;27.37;;;;;;;;;;4991750;28;20207;-76
2022/01/25 10:16:09;;;;;;;65.70;25.60;;;;;;;;;;4991629;28;20199;-79
2022/01/25 10:18:38;;;;;;;64.43;26.30;;;;;;;;;;4992874;28;20187;-76
2022/01/25 10:21:09;;;;;;;75.07;28.57;;;;;;;;;;4985212;28;20203;-76
2022/01/25 10:23:35;;;;;;;67.73;28.20;;;;;;;;;;5007852;28;20601;-76
2022/01/25 10:26:04;;;;;;;61.67;25.67;;;;;;;;;;4989310;28;20184;-76
2022/01/25 10:28:31;;;;;;;69.53;26.60;;;;;;;;;;4992004;28;20216;-77
2022/01/25 10:30:59;;;;;;;66.30;26.40;;;;;;;;;;4987905;28;20196;-76
2022/01/25 10:33:38;;;;;;;76.73;29.40;;;;;;;;;;4982479;28;20275;-76
2022/01/25 10:36:15;;;;;;;83.53;28.97;;;;;;;;;;4991573;28;20198;-76
2022/01/25 10:38:42;;;;;;;75.20;29.27;;;;;;;;;;4980811;28;20238;-77
2022/01/25 10:41:11;;;;;;;88.83;30.37;;;;;;;;;;4988950;28;20726;-77
2022/01/25 10:43:38;;;;;;;92.47;27.33;;;;;;;;;;4989429;28;20184;-76
2022/01/25 10:46:05;;;;;;;108.87;29.77;;;;;;;;;;4990806;28;20188;-76
2022/01/25 10:48:31;;;;;;;79.37;28.70;;;;;;;;;;4972621;28;20282;-76
2022/01/25 10:51:07;;;;;;;92.37;29.17;;;;;;;;;;4960387;28;20566;-76
2022/01/25 10:53:34;;;;;;;79.17;30.40;;;;;;;;;;4988406;28;20187;-76
2022/01/25 10:56:00;;;;;;;97.50;30.60;;;;;;;;;;5004397;28;20651;-76
2022/01/25 10:58:27;;;;;;;71.13;27.20;;;;;;;;;;4988082;28;20192;-76
2022/01/25 11:00:53;;;;;;;69.03;26.23;;;;;;;;;;4975075;28;20208;-76
2022/01/25 11:03:30;;;;;;;79.83;26.73;;;;;;;;;;4973556;28;20239;-76
2022/01/25 11:05:57;;;;;;;75.87;27.40;;;;;;;;;;4976532;28;20192;-76
2022/01/25 11:08:25;;;;;;;80.90;28.93;;;;;;;;;;4987628;28;20207;-76
2022/01/25 11:10:56;;;;;;;80.33;28.90;;;;;;;;;;4984875;28;20205;-76
2022/01/25 11:13:48;;;;;;;84.27;29.37;;;;;;;;;;4988146;28;20590;-76
2022/01/25 11:16:11;;;;;;;76.20;27.03;;;;;;;;;;4969430;28;20188;-76
2022/01/25 11:18:38;;;;;;;75.37;27.50;;;;;;;;;;4990999;28;20188;-76
2022/01/25 11:21:06;;;;;;;85.83;30.87;;;;;;;;;;4990761;28;20203;-76
2022/01/25 11:23:33;;;;;;;77.30;29.13;;;;;;;;;;5004063;28;20191;-75
2022/01/25 11:26:02;;;;;;;85.10;28.90;;;;;;;;;;4987744;28;20215;-76
2022/01/25 11:28:30;;;;;;;96.57;31.90;;;;;;;;;;4992166;28;20208;-76
2022/01/25 11:30:57;;;;;;;84.47;30.20;;;;;;;;;;4992260;28;20295;-76
2022/01/25 11:33:24;;;;;;;94.27;34.30;;;;;;;;;;5004203;28;20654;-76
2022/01/25 11:35:50;;;;;;;101.80;33.00;;;;;;;;;;4991498;28;20176;-76
2022/01/25 11:38:26;;;;;;;87.60;32.33;;;;;;;;;;4991669;28;20674;-76
2022/01/25 11:40:55;;;;;;;113.20;37.83;;;;;;;;;;4986344;28;20549;-76
2022/01/25 11:43:21;;;;;;;89.93;32.73;;;;;;;;;;5006354;28;20673;-76
2022/01/25 11:45:49;;;;;;;98.93;35.77;;;;;;;;;;4990861;28;20187;-76
2022/01/25 11:48:25;;;;;;;100.47;36.67;;;;;;;;;;4991468;28;20214;-76
2022/01/25 11:50:51;;;;;;;112.90;36.97;;;;;;;;;;4964577;28;20195;-76
2022/01/25 11:53:19;;;;;;;100.83;38.93;;;;;;;;;;4987966;28;20176;-76
2022/01/25 11:55:49;;;;;;;93.13;34.63;;;;;;;;;;4987796;28;20268;-75
2022/01/25 11:58:15;;;;;;;101.97;38.83;;;;;;;;;;4983686;28;20203;-77
2022/01/25 12:00:46;;;;;;;98.97;36.57;;;;;;;;;;4990973;28;20262;-78
2022/01/25 12:03:28;;;;;;;116.67;39.87;;;;;;;;;;4990486;28;20249;-76
2022/01/25 12:05:59;;;;;;;105.07;38.33;;;;;;;;;;4991296;28;20188;-78
2022/01/25 12:08:38;;;;;;;96.60;39.17;;;;;;;;;;4991168;28;20613;-77
2022/01/25 12:11:24;;;;;;;111.17;42.10;;;;;;;;;;4991041;28;20203;-75
2022/01/25 12:14:09;;;;;;;111.67;41.13;;;;;;;;;;4986197;28;20184;-76
2022/01/25 12:16:43;;;;;;;107.03;39.17;;;;;;;;;;4996155;28;20271;-77
2022/01/25 12:19:10;;;;;;;109.93;39.50;;;;;;;;;;4984889;28;20190;-74
2022/01/25 12:21:57;;;;;;;114.23;41.90;;;;;;;;;;4981249;28;20207;-74
2022/01/25 12:25:08;;;;;;;108.77;41.27;;;;;;;;;;4984779;28;20195;-74
2022/01/25 12:27:42;;;;;;;112.10;40.37;;;;;;;;;;4962885;28;20199;-76
2022/01/25 12:30:13;;;;;;;101.37;38.23;;;;;;;;;;4984149;28;20204;-75
2022/01/25 12:32:55;;;;;;;92.17;36.77;;;;;;;;;;4984234;28;20180;-75
2022/01/25 12:35:40;;;;;;;106.10;39.93;;;;;;;;;;4999598;28;20271;-77
2022/01/25 12:38:08;;;;;;;103.40;38.23;;;;;;;;;;4991927;28;20180;-78
2022/01/25 12:40:36;;;;;;;100.83;36.83;;;;;;;;;;4973134;28;20687;-78
2022/01/25 12:43:04;;;;;;;90.30;35.17;;;;;;;;;;4988696;28;20184;-78
2022/01/25 12:45:36;;;;;;;91.97;34.93;;;;;;;;;;4989928;28;20199;-79
2022/01/25 12:48:05;;;;;;;93.33;37.00;;;;;;;;;;4989742;28;20214;-78
2022/01/25 12:50:32;;;;;;;92.07;35.80;;;;;;;;;;4984926;28;20212;-78
2022/01/25 12:52:59;;;;;;;89.27;36.77;;;;;;;;;;4991126;28;20944;-79
2022/01/25 12:55:30;;;;;;;85.10;34.50;;;;;;;;;;4990856;28;20195;-79
2022/01/25 12:57:56;;;;;;;90.23;35.30;;;;;;;;;;4993778;28;20674;-79
2022/01/25 13:00:28;;;;;;;89.67;35.13;;;;;;;;;;5004015;28;20630;-79
2022/01/25 13:03:10;;;;;;;82.30;32.83;;;;;;;;;;4993266;28;20184;-77
2022/01/25 13:05:41;;;;;;;84.97;34.70;;;;;;;;;;5008942;28;20545;-77
2022/01/25 13:08:43;;;;;;;90.50;34.80;;;;;;;;;;5000234;28;20211;-80
2022/01/25 13:11:16;;;;;;;92.00;33.43;;;;;;;;;;4991796;28;20219;-79
2022/01/25 13:16:41;;;;;;;84.00;32.30;;;;;;;;;;4998940;28;20208;-81
2022/01/25 13:19:07;;;;;;;90.37;34.57;;;;;;;;;;4971233;28;20188;-80
2022/01/25 13:21:41;;;;;;;90.13;34.83;;;;;;;;;;4989157;28;20211;-80
2022/01/25 13:24:12;;;;;;;80.73;31.83;;;;;;;;;;4978771;28;20675;-78
2022/01/25 13:26:48;;;;;;;84.77;34.77;;;;;;;;;;4967682;28;20191;-78
2022/01/25 13:32:26;;;;;;;91.87;34.63;;;;;;;;;;4991239;28;20286;-78
2022/01/25 13:35:18;;;;;;;86.37;35.17;;;;;;;;;;4983000;28;20207;-78
2022/01/25 13:37:45;;;;;;;91.47;34.83;;;;;;;;;;4997255;28;20188;-78
2022/01/25 13:40:13;;;;;;;90.33;35.57;;;;;;;;;;5007296;28;20214;-78
2022/01/25 13:48:03;;;;;;;83.43;33.27;;;;;;;;;;4990712;28;20200;-78
2022/01/25 13:50:29;;;;;;;99.20;34.83;;;;;;;;;;4986502;28;20680;-78
2022/01/25 13:52:56;;;;;;;84.97;34.73;;;;;;;;;;4991171;28;20659;-78
2022/01/25 13:55:22;;;;;;;90.63;35.50;;;;;;;;;;4991960;28;20207;-78
2022/01/25 13:57:48;;;;;;;88.40;33.80;;;;;;;;;;5007386;28;20212;-78
2022/01/25 14:00:14;;;;;;;95.13;33.87;;;;;;;;;;4991610;28;20207;-77
2022/01/25 14:02:41;;;;;;;89.50;35.23;;;;;;;;;;4992598;28;20184;-78
2022/01/25 14:05:07;;;;;;;91.67;35.70;;;;;;;;;;5006640;28;20195;-78
2022/01/25 14:07:39;;;;;;;91.70;35.47;;;;;;;;;;4992434;28;20188;-77
2022/01/25 14:10:07;;;;;;;98.90;37.23;;;;;;;;;;4986749;28;20265;-78
2022/01/25 14:23:34;;;;;;;98.70;35.13;;;;;;;;;;4989274;28;20184;-77
2022/01/25 14:26:05;;;;;;;93.80;36.33;;;;;;;;;;4988684;28;20199;-76
2022/01/25 14:28:38;;;;;;;86.03;34.60;;;;;;;;;;4985472;28;20297;-76
2022/01/25 14:31:04;;;;;;;94.97;37.17;;;;;;;;;;4984314;28;20192;-77
2022/01/25 14:33:33;;;;;;;83.17;33.63;;;;;;;;;;4988988;28;20658;-77
2022/01/25 14:36:09;;;;;;;93.10;36.47;;;;;;;;;;4990331;28;20187;-77
2022/01/25 14:38:36;;;;;;;107.03;39.43;;;;;;;;;;4987136;28;20648;-77
2022/01/25 14:41:06;;;;;;;103.77;38.50;;;;;;;;;;4992468;28;20207;-77
2022/01/25 14:43:33;;;;;;;91.23;35.37;;;;;;;;;;4992346;28;20184;-76
2022/01/25 14:46:07;;;;;;;102.87;37.63;;;;;;;;;;4989720;28;20184;-77
2022/01/25 14:48:36;;;;;;;99.10;36.27;;;;;;;;;;4990135;28;20330;-77
2022/01/25 14:51:04;;;;;;;92.53;35.50;;;;;;;;;;4984454;28;20216;-76
2022/01/25 14:53:30;;;;;;;91.73;34.40;;;;;;;;;;4990439;28;20180;-77
2022/01/25 14:55:59;;;;;;;78.03;32.70;;;;;;;;;;4987394;28;20630;-77
2022/01/25 15:01:30;;;;;;;79.57;31.13;;;;;;;;;;4949737;28;20312;-77
2022/01/25 15:03:57;;;;;;;68.23;29.70;;;;;;;;;;4950859;28;20696;-77
2022/01/25 15:06:23;;;;;;;78.23;31.00;;;;;;;;;;4965744;28;20226;-76
2022/01/25 15:08:51;;;;;;;84.70;33.13;;;;;;;;;;4990902;28;20261;-79
2022/01/25 15:11:17;;;;;;;76.83;31.17;;;;;;;;;;5006013;28;20203;-76
2022/01/25 15:13:43;;;;;;;77.27;30.43;;;;;;;;;;4991235;28;20184;-76
2022/01/25 15:16:10;;;;;;;82.50;32.17;;;;;;;;;;4988445;28;20267;-75
2022/01/25 15:18:38;;;;;;;87.00;32.93;;;;;;;;;;5003677;28;20242;-77
2022/01/25 15:21:06;;;;;;;93.20;33.77;;;;;;;;;;4986623;28;20223;-77
2022/01/25 15:23:33;;;;;;;84.43;33.07;;;;;;;;;;5007245;28;20207;-76
2022/01/25 15:26:04;;;;;;;84.10;32.80;;;;;;;;;;4990232;28;20543;-77
2022/01/25 15:31:05;;;;;;;84.63;32.63;;;;;;;;;;4991456;28;20310;-76
2022/01/25 15:33:32;;;;;;;76.60;30.50;;;;;;;;;;5005204;28;20707;-77
2022/01/25 15:35:58;;;;;;;88.17;32.87;;;;;;;;;;4991642;28;20184;-76
2022/01/25 15:38:24;;;;;;;73.23;30.93;;;;;;;;;;4988798;28;20195;-76
2022/01/25 15:40:50;;;;;;;73.37;29.87;;;;;;;;;;4983686;28;20216;-77
2022/01/25 15:43:22;;;;;;;81.30;30.70;;;;;;;;;;4975019;28;20265;-78
2022/01/25 15:48:22;;;;;;;78.93;30.67;;;;;;;;;;4984719;28;20208;-77
2022/01/25 15:50:48;;;;;;;79.90;34.47;;;;;;;;;;4985977;28;20211;-77
2022/01/25 15:53:14;;;;;;;76.33;30.20;;;;;;;;;;4986449;28;20234;-77
2022/01/25 15:55:41;;;;;;;64.50;26.13;;;;;;;;;;4986388;28;20184;-77
2022/01/25 15:58:07;;;;;;;59.70;26.60;;;;;;;;;;4991083;28;20655;-77
2022/01/25 16:00:33;;;;;;;71.03;28.83;;;;;;;;;;4969644;28;20250;-77
2022/01/25 16:03:00;;;;;;;63.90;28.67;;;;;;;;;;4978791;28;20300;-77
2022/01/25 16:05:26;;;;;;;62.67;26.60;;;;;;;;;;4988449;28;20652;-77
2022/01/25 16:07:53;;;;;;;62.13;27.77;;;;;;;;;;4983678;28;20222;-77
2022/01/25 16:10:22;;;;;;;56.70;25.27;;;;;;;;;;4989599;28;20205;-76
2022/01/25 16:12:48;;;;;;;65.87;27.53;;;;;;;;;;4987140;28;20256;-78
2022/01/25 16:15:15;;;;;;;63.27;27.80;;;;;;;;;;4973782;28;20243;-77
2022/01/25 16:17:42;;;;;;;56.03;25.60;;;;;;;;;;4974614;28;20184;-79
2022/01/25 16:20:10;;;;;;;60.43;27.10;;;;;;;;;;4957481;28;20703;-76
2022/01/25 16:22:36;;;;;;;60.30;27.00;;;;;;;;;;4998647;28;20184;-76
2022/01/25 16:25:03;;;;;;;48.03;22.90;;;;;;;;;;4988451;28;20550;-75
2022/01/25 16:27:29;;;;;;;53.43;24.57;;;;;;;;;;4958352;28;20584;-76
2022/01/25 16:29:55;;;;;;;48.43;24.03;;;;;;;;;;4984151;28;20180;-75
2022/01/25 16:32:23;;;;;;;50.63;23.40;;;;;;;;;;4985742;28;20183;-77
2022/01/25 16:34:50;;;;;;;52.03;23.73;;;;;;;;;;5003027;28;20179;-77
2022/01/25 16:37:16;;;;;;;54.73;26.37;;;;;;;;;;4970522;28;20633;-77
2022/01/25 16:39:42;;;;;;;53.43;24.57;;;;;;;;;;4984159;28;20223;-78